Morrisville, North Carolina
Current Conditions -  °F | °C
As of 2:51 PM on Thursday 29 Jan 2015 (Local Time) from KRDU Reporting Station
Broken Clouds Broken Clouds  
Wind Chill: 41°   Ceiling: 15000
Heat Index: 46°   Visibility: 10mi
Dew Point: 16°   Wind: 9mph
Humidity: 30%   Direction: 220°SW
Pressure: 30.19"   Gusts: NA
Location:  35.82°N, 78.83°W
Report Text: KRDU 291951Z 22008KT 10SM BKN150 BKN250 08/M09 A3019 RMK AO2 SLP226 T00781089
Loading
Personal Weather Stations






























Interactive Weather Map New forecast layout! Learn more

10-Day Weather Forecast

Advertisements
Track Severe Weather on mobile